sensor_id;sensor_type;location;lat;lon;timestamp;P1;durP1;ratioP1;P2;durP2;ratioP2
78402;SDS011;67687;43.508;1.504;2023-05-10T00:01:17;10.82;;;3.03;;
78402;SDS011;67687;43.508;1.504;2023-05-10T00:03:43;11.73;;;2.90;;
78402;SDS011;67687;43.508;1.504;2023-05-10T00:06:10;14.20;;;3.50;;
78402;SDS011;67687;43.508;1.504;2023-05-10T00:08:38;12.50;;;2.90;;
78402;SDS011;67687;43.508;1.504;2023-05-10T00:11:05;12.85;;;2.97;;
78402;SDS011;67687;43.508;1.504;2023-05-10T00:13:32;12.43;;;2.92;;
78402;SDS011;67687;43.508;1.504;2023-05-10T00:15:58;12.60;;;3.60;;
78402;SDS011;67687;43.508;1.504;2023-05-10T00:18:25;14.18;;;3.05;;
78402;SDS011;67687;43.508;1.504;2023-05-10T00:20:52;17.95;;;2.90;;
78402;SDS011;67687;43.508;1.504;2023-05-10T00:23:19;14.15;;;3.70;;
78402;SDS011;67687;43.508;1.504;2023-05-10T00:25:47;13.35;;;2.85;;
78402;SDS011;67687;43.508;1.504;2023-05-10T00:28:14;12.40;;;2.97;;
78402;SDS011;67687;43.508;1.504;2023-05-10T00:30:40;13.73;;;3.63;;
78402;SDS011;67687;43.508;1.504;2023-05-10T00:33:07;14.30;;;3.60;;
78402;SDS011;67687;43.508;1.504;2023-05-10T00:35:34;19.65;;;3.53;;
78402;SDS011;67687;43.508;1.504;2023-05-10T00:38:01;14.95;;;3.53;;
78402;SDS011;67687;43.508;1.504;2023-05-10T00:40:28;12.30;;;3.00;;
78402;SDS011;67687;43.508;1.504;2023-05-10T00:42:57;14.05;;;2.92;;
78402;SDS011;67687;43.508;1.504;2023-05-10T00:45:24;14.32;;;3.03;;
78402;SDS011;67687;43.508;1.504;2023-05-10T00:47:51;14.25;;;3.00;;
78402;SDS011;67687;43.508;1.504;2023-05-10T00:50:20;15.68;;;3.65;;
78402;SDS011;67687;43.508;1.504;2023-05-10T00:52:47;13.67;;;3.30;;
78402;SDS011;67687;43.508;1.504;2023-05-10T00:55:14;17.77;;;3.88;;
78402;SDS011;67687;43.508;1.504;2023-05-10T00:57:40;17.63;;;3.35;;
78402;SDS011;67687;43.508;1.504;2023-05-10T01:00:09;14.80;;;3.70;;
78402;SDS011;67687;43.508;1.504;2023-05-10T01:02:37;17.50;;;3.40;;
78402;SDS011;67687;43.508;1.504;2023-05-10T01:05:04;14.40;;;3.57;;
78402;SDS011;67687;43.508;1.504;2023-05-10T01:07:32;11.55;;;2.92;;
78402;SDS011;67687;43.508;1.504;2023-05-10T01:09:58;14.50;;;2.70;;
78402;SDS011;67687;43.508;1.504;2023-05-10T01:12:26;16.02;;;3.58;;
78402;SDS011;67687;43.508;1.504;2023-05-10T01:14:52;13.18;;;2.90;;
78402;SDS011;67687;43.508;1.504;2023-05-10T01:17:22;13.30;;;2.90;;
78402;SDS011;67687;43.508;1.504;2023-05-10T01:19:48;13.00;;;2.75;;
78402;SDS011;67687;43.508;1.504;2023-05-10T01:22:22;9.68;;;2.33;;
78402;SDS011;67687;43.508;1.504;2023-05-10T01:25:19;11.40;;;2.45;;
78402;SDS011;67687;43.508;1.504;2023-05-10T01:28:02;11.13;;;2.95;;
78402;SDS011;67687;43.508;1.504;2023-05-10T01:30:47;16.53;;;3.90;;
78402;SDS011;67687;43.508;1.504;2023-05-10T01:33:24;10.25;;;2.75;;
78402;SDS011;67687;43.508;1.504;2023-05-10T01:35:55;13.13;;;2.60;;
78402;SDS011;67687;43.508;1.504;2023-05-10T01:38:28;9.20;;;2.80;;
78402;SDS011;67687;43.508;1.504;2023-05-10T01:41:01;10.02;;;2.75;;
78402;SDS011;67687;43.508;1.504;2023-05-10T01:43:37;12.87;;;2.37;;
78402;SDS011;67687;43.508;1.504;2023-05-10T01:46:10;13.35;;;2.03;;
78402;SDS011;67687;43.508;1.504;2023-05-10T01:48:45;12.60;;;2.60;;
78402;SDS011;67687;43.508;1.504;2023-05-10T01:51:14;12.05;;;2.63;;
78402;SDS011;67687;43.508;1.504;2023-05-10T01:53:43;9.73;;;2.97;;
78402;SDS011;67687;43.508;1.504;2023-05-10T01:56:11;9.57;;;2.00;;
78402;SDS011;67687;43.508;1.504;2023-05-10T01:58:38;10.15;;;2.10;;
78402;SDS011;67687;43.508;1.504;2023-05-10T02:01:07;11.95;;;2.28;;
78402;SDS011;67687;43.508;1.504;2023-05-10T02:03:34;14.55;;;2.50;;
78402;SDS011;67687;43.508;1.504;2023-05-10T02:06:03;14.73;;;2.70;;
78402;SDS011;67687;43.508;1.504;2023-05-10T02:08:31;10.13;;;2.37;;
78402;SDS011;67687;43.508;1.504;2023-05-10T02:10:59;12.20;;;2.25;;
78402;SDS011;67687;43.508;1.504;2023-05-10T02:13:27;14.10;;;2.55;;
78402;SDS011;67687;43.508;1.504;2023-05-10T02:15:54;10.85;;;2.25;;
78402;SDS011;67687;43.508;1.504;2023-05-10T02:18:21;11.32;;;2.53;;
78402;SDS011;67687;43.508;1.504;2023-05-10T02:20:48;9.97;;;2.10;;
78402;SDS011;67687;43.508;1.504;2023-05-10T02:23:18;14.65;;;2.58;;
78402;SDS011;67687;43.508;1.504;2023-05-10T02:25:45;10.80;;;2.28;;
78402;SDS011;67687;43.508;1.504;2023-05-10T02:28:12;11.90;;;2.70;;
78402;SDS011;67687;43.508;1.504;2023-05-10T02:30:40;13.07;;;2.95;;
78402;SDS011;67687;43.508;1.504;2023-05-10T02:33:08;12.63;;;2.43;;
78402;SDS011;67687;43.508;1.504;2023-05-10T02:35:34;12.82;;;2.55;;
78402;SDS011;67687;43.508;1.504;2023-05-10T02:38:01;15.25;;;2.67;;
78402;SDS011;67687;43.508;1.504;2023-05-10T02:40:30;13.00;;;2.47;;
78402;SDS011;67687;43.508;1.504;2023-05-10T02:42:58;12.82;;;2.50;;
78402;SDS011;67687;43.508;1.504;2023-05-10T02:45:27;13.23;;;2.80;;
78402;SDS011;67687;43.508;1.504;2023-05-10T02:47:55;12.65;;;3.13;;
78402;SDS011;67687;43.508;1.504;2023-05-10T02:50:23;11.93;;;2.90;;
78402;SDS011;67687;43.508;1.504;2023-05-10T02:52:52;13.65;;;2.72;;
78402;SDS011;67687;43.508;1.504;2023-05-10T02:55:22;12.98;;;2.78;;
78402;SDS011;67687;43.508;1.504;2023-05-10T02:57:54;11.57;;;3.03;;
78402;SDS011;67687;43.508;1.504;2023-05-10T03:00:24;18.25;;;3.03;;
78402;SDS011;67687;43.508;1.504;2023-05-10T03:02:51;20.35;;;3.45;;
78402;SDS011;67687;43.508;1.504;2023-05-10T03:05:18;13.48;;;2.92;;
78402;SDS011;67687;43.508;1.504;2023-05-10T03:07:44;12.52;;;2.40;;
78402;SDS011;67687;43.508;1.504;2023-05-10T03:10:12;12.27;;;2.73;;
78402;SDS011;67687;43.508;1.504;2023-05-10T03:12:42;12.45;;;3.45;;
78402;SDS011;67687;43.508;1.504;2023-05-10T03:15:17;15.27;;;3.15;;
78402;SDS011;67687;43.508;1.504;2023-05-10T03:17:47;16.13;;;3.00;;
78402;SDS011;67687;43.508;1.504;2023-05-10T03:20:20;16.23;;;3.00;;
78402;SDS011;67687;43.508;1.504;2023-05-10T03:22:50;14.47;;;3.07;;
78402;SDS011;67687;43.508;1.504;2023-05-10T03:25:19;17.02;;;3.50;;
78402;SDS011;67687;43.508;1.504;2023-05-10T03:27:47;12.18;;;3.28;;
78402;SDS011;67687;43.508;1.504;2023-05-10T03:30:15;12.15;;;3.17;;
78402;SDS011;67687;43.508;1.504;2023-05-10T03:32:42;11.60;;;2.72;;
78402;SDS011;67687;43.508;1.504;2023-05-10T03:35:09;11.80;;;2.40;;
78402;SDS011;67687;43.508;1.504;2023-05-10T03:37:37;12.50;;;2.58;;
78402;SDS011;67687;43.508;1.504;2023-05-10T03:40:04;10.43;;;2.25;;
78402;SDS011;67687;43.508;1.504;2023-05-10T03:42:31;12.05;;;2.70;;
78402;SDS011;67687;43.508;1.504;2023-05-10T03:44:58;12.68;;;2.58;;
78402;SDS011;67687;43.508;1.504;2023-05-10T03:47:26;8.07;;;2.43;;
78402;SDS011;67687;43.508;1.504;2023-05-10T03:49:54;10.00;;;2.80;;
78402;SDS011;67687;43.508;1.504;2023-05-10T03:52:21;13.73;;;2.50;;
78402;SDS011;67687;43.508;1.504;2023-05-10T03:54:48;9.95;;;2.30;;
78402;SDS011;67687;43.508;1.504;2023-05-10T03:57:14;14.68;;;2.40;;
78402;SDS011;67687;43.508;1.504;2023-05-10T03:59:41;12.83;;;2.93;;
78402;SDS011;67687;43.508;1.504;2023-05-10T04:02:08;11.43;;;2.17;;
78402;SDS011;67687;43.508;1.504;2023-05-10T04:04:36;15.02;;;2.75;;
78402;SDS011;67687;43.508;1.504;2023-05-10T04:07:03;11.35;;;2.40;;
78402;SDS011;67687;43.508;1.504;2023-05-10T04:09:30;15.85;;;3.38;;
78402;SDS011;67687;43.508;1.504;2023-05-10T04:11:58;15.27;;;2.30;;
78402;SDS011;67687;43.508;1.504;2023-05-10T04:14:25;10.45;;;2.30;;
78402;SDS011;67687;43.508;1.504;2023-05-10T04:16:51;11.57;;;2.78;;
78402;SDS011;67687;43.508;1.504;2023-05-10T04:19:18;11.80;;;2.22;;
78402;SDS011;67687;43.508;1.504;2023-05-10T04:21:46;13.35;;;2.42;;
78402;SDS011;67687;43.508;1.504;2023-05-10T04:24:13;13.57;;;2.47;;
78402;SDS011;67687;43.508;1.504;2023-05-10T04:26:40;10.85;;;2.20;;
78402;SDS011;67687;43.508;1.504;2023-05-10T04:29:06;11.68;;;1.92;;
78402;SDS011;67687;43.508;1.504;2023-05-10T04:31:33;10.70;;;2.00;;
78402;SDS011;67687;43.508;1.504;2023-05-10T04:34:01;12.73;;;2.22;;
78402;SDS011;67687;43.508;1.504;2023-05-10T04:36:28;14.27;;;2.70;;
78402;SDS011;67687;43.508;1.504;2023-05-10T04:38:56;11.27;;;2.03;;
78402;SDS011;67687;43.508;1.504;2023-05-10T04:41:22;11.25;;;2.10;;
78402;SDS011;67687;43.508;1.504;2023-05-10T04:43:50;11.18;;;2.10;;
78402;SDS011;67687;43.508;1.504;2023-05-10T04:46:17;14.80;;;1.67;;
78402;SDS011;67687;43.508;1.504;2023-05-10T04:48:44;14.80;;;2.00;;
78402;SDS011;67687;43.508;1.504;2023-05-10T04:51:11;12.95;;;2.10;;
78402;SDS011;67687;43.508;1.504;2023-05-10T04:53:37;12.80;;;2.35;;
78402;SDS011;67687;43.508;1.504;2023-05-10T04:56:06;11.63;;;1.88;;
78402;SDS011;67687;43.508;1.504;2023-05-10T04:58:33;13.98;;;2.33;;
78402;SDS011;67687;43.508;1.504;2023-05-10T05:01:07;17.33;;;2.43;;
78402;SDS011;67687;43.508;1.504;2023-05-10T05:03:35;11.15;;;2.25;;
78402;SDS011;67687;43.508;1.504;2023-05-10T05:06:02;14.43;;;2.38;;
78402;SDS011;67687;43.508;1.504;2023-05-10T05:08:30;15.85;;;2.40;;
78402;SDS011;67687;43.508;1.504;2023-05-10T05:10:56;13.60;;;3.25;;
78402;SDS011;67687;43.508;1.504;2023-05-10T05:13:25;14.37;;;2.53;;
78402;SDS011;67687;43.508;1.504;2023-05-10T05:15:52;16.15;;;2.35;;
78402;SDS011;67687;43.508;1.504;2023-05-10T05:18:19;13.60;;;2.72;;
78402;SDS011;67687;43.508;1.504;2023-05-10T05:20:46;16.98;;;2.80;;
78402;SDS011;67687;43.508;1.504;2023-05-10T05:23:13;19.42;;;2.63;;
78402;SDS011;67687;43.508;1.504;2023-05-10T05:25:40;11.37;;;2.20;;
78402;SDS011;67687;43.508;1.504;2023-05-10T05:28:07;12.13;;;3.08;;
78402;SDS011;67687;43.508;1.504;2023-05-10T05:30:35;13.07;;;2.72;;
78402;SDS011;67687;43.508;1.504;2023-05-10T05:33:02;14.05;;;2.60;;
78402;SDS011;67687;43.508;1.504;2023-05-10T05:35:29;12.02;;;2.72;;
78402;SDS011;67687;43.508;1.504;2023-05-10T05:37:55;15.10;;;2.70;;
78402;SDS011;67687;43.508;1.504;2023-05-10T05:40:22;10.50;;;2.60;;
78402;SDS011;67687;43.508;1.504;2023-05-10T05:42:49;15.20;;;2.38;;
78402;SDS011;67687;43.508;1.504;2023-05-10T05:45:16;11.50;;;2.30;;
78402;SDS011;67687;43.508;1.504;2023-05-10T05:47:44;11.27;;;2.38;;
78402;SDS011;67687;43.508;1.504;2023-05-10T05:50:11;9.97;;;2.70;;
78402;SDS011;67687;43.508;1.504;2023-05-10T05:52:38;12.48;;;2.35;;
78402;SDS011;67687;43.508;1.504;2023-05-10T05:55:05;11.95;;;2.67;;
78402;SDS011;67687;43.508;1.504;2023-05-10T05:57:31;10.77;;;2.30;;
78402;SDS011;67687;43.508;1.504;2023-05-10T05:59:58;11.25;;;2.70;;
78402;SDS011;67687;43.508;1.504;2023-05-10T06:02:25;9.70;;;2.50;;
78402;SDS011;67687;43.508;1.504;2023-05-10T06:04:53;11.65;;;1.98;;
78402;SDS011;67687;43.508;1.504;2023-05-10T06:07:20;13.70;;;2.35;;
78402;SDS011;67687;43.508;1.504;2023-05-10T06:09:47;10.18;;;2.30;;
78402;SDS011;67687;43.508;1.504;2023-05-10T06:12:13;10.25;;;2.03;;
78402;SDS011;67687;43.508;1.504;2023-05-10T06:14:40;13.63;;;2.60;;
78402;SDS011;67687;43.508;1.504;2023-05-10T06:17:07;13.50;;;2.60;;
78402;SDS011;67687;43.508;1.504;2023-05-10T06:19:34;16.77;;;3.00;;
78402;SDS011;67687;43.508;1.504;2023-05-10T06:22:02;15.50;;;2.72;;
78402;SDS011;67687;43.508;1.504;2023-05-10T06:24:29;10.02;;;2.28;;
78402;SDS011;67687;43.508;1.504;2023-05-10T06:26:57;11.33;;;2.20;;
78402;SDS011;67687;43.508;1.504;2023-05-10T06:29:27;12.32;;;2.15;;
78402;SDS011;67687;43.508;1.504;2023-05-10T06:31:54;15.50;;;2.60;;
78402;SDS011;67687;43.508;1.504;2023-05-10T06:34:21;13.02;;;2.45;;
78402;SDS011;67687;43.508;1.504;2023-05-10T06:36:48;14.57;;;2.75;;
78402;SDS011;67687;43.508;1.504;2023-05-10T06:39:16;13.43;;;2.30;;
78402;SDS011;67687;43.508;1.504;2023-05-10T06:41:46;14.60;;;2.42;;
78402;SDS011;67687;43.508;1.504;2023-05-10T06:44:13;17.80;;;2.40;;
78402;SDS011;67687;43.508;1.504;2023-05-10T06:46:40;17.00;;;2.50;;
78402;SDS011;67687;43.508;1.504;2023-05-10T06:49:07;13.27;;;2.40;;
78402;SDS011;67687;43.508;1.504;2023-05-10T06:51:34;13.07;;;2.40;;
78402;SDS011;67687;43.508;1.504;2023-05-10T06:54:01;14.55;;;2.67;;
78402;SDS011;67687;43.508;1.504;2023-05-10T06:56:29;16.45;;;2.30;;
78402;SDS011;67687;43.508;1.504;2023-05-10T06:58:57;11.27;;;2.80;;
78402;SDS011;67687;43.508;1.504;2023-05-10T07:01:24;11.65;;;2.25;;
78402;SDS011;67687;43.508;1.504;2023-05-10T07:03:51;13.00;;;2.10;;
78402;SDS011;67687;43.508;1.504;2023-05-10T07:06:18;11.80;;;2.35;;
78402;SDS011;67687;43.508;1.504;2023-05-10T07:08:46;15.93;;;2.40;;
78402;SDS011;67687;43.508;1.504;2023-05-10T07:11:13;15.88;;;2.40;;
78402;SDS011;67687;43.508;1.504;2023-05-10T07:13:41;9.70;;;2.10;;
78402;SDS011;67687;43.508;1.504;2023-05-10T07:16:15;10.93;;;2.47;;
78402;SDS011;67687;43.508;1.504;2023-05-10T07:18:42;10.90;;;2.70;;
78402;SDS011;67687;43.508;1.504;2023-05-10T07:21:09;14.77;;;2.00;;
78402;SDS011;67687;43.508;1.504;2023-05-10T07:23:36;10.55;;;2.25;;
78402;SDS011;67687;43.508;1.504;2023-05-10T07:26:03;11.23;;;2.30;;
78402;SDS011;67687;43.508;1.504;2023-05-10T07:28:31;10.40;;;2.40;;
78402;SDS011;67687;43.508;1.504;2023-05-10T07:30:59;11.40;;;2.35;;
78402;SDS011;67687;43.508;1.504;2023-05-10T07:33:27;10.15;;;2.03;;
78402;SDS011;67687;43.508;1.504;2023-05-10T07:35:57;12.10;;;2.28;;
78402;SDS011;67687;43.508;1.504;2023-05-10T07:38:25;15.52;;;2.47;;
78402;SDS011;67687;43.508;1.504;2023-05-10T07:40:52;11.70;;;2.10;;
78402;SDS011;67687;43.508;1.504;2023-05-10T07:43:21;13.52;;;2.30;;
78402;SDS011;67687;43.508;1.504;2023-05-10T07:45:48;9.73;;;2.13;;
78402;SDS011;67687;43.508;1.504;2023-05-10T07:48:16;10.38;;;2.08;;
78402;SDS011;67687;43.508;1.504;2023-05-10T07:50:43;13.25;;;2.50;;
78402;SDS011;67687;43.508;1.504;2023-05-10T07:53:10;13.87;;;2.43;;
78402;SDS011;67687;43.508;1.504;2023-05-10T07:55:38;17.40;;;2.78;;
78402;SDS011;67687;43.508;1.504;2023-05-10T07:58:05;15.35;;;2.25;;
78402;SDS011;67687;43.508;1.504;2023-05-10T08:00:32;11.55;;;2.33;;
78402;SDS011;67687;43.508;1.504;2023-05-10T08:03:00;12.50;;;2.88;;
78402;SDS011;67687;43.508;1.504;2023-05-10T08:05:28;11.43;;;2.23;;
78402;SDS011;67687;43.508;1.504;2023-05-10T08:07:55;13.30;;;2.22;;
78402;SDS011;67687;43.508;1.504;2023-05-10T08:10:22;12.95;;;2.97;;
78402;SDS011;67687;43.508;1.504;2023-05-10T08:12:48;11.88;;;2.28;;
78402;SDS011;67687;43.508;1.504;2023-05-10T08:15:15;11.65;;;2.22;;
78402;SDS011;67687;43.508;1.504;2023-05-10T08:17:44;9.70;;;1.70;;
78402;SDS011;67687;43.508;1.504;2023-05-10T08:20:11;12.32;;;2.03;;
78402;SDS011;67687;43.508;1.504;2023-05-10T08:22:43;11.88;;;2.22;;
78402;SDS011;67687;43.508;1.504;2023-05-10T08:25:10;15.20;;;2.47;;
78402;SDS011;67687;43.508;1.504;2023-05-10T08:27:37;9.90;;;1.80;;
78402;SDS011;67687;43.508;1.504;2023-05-10T08:30:04;9.33;;;1.97;;
78402;SDS011;67687;43.508;1.504;2023-05-10T08:32:32;13.50;;;2.42;;
78402;SDS011;67687;43.508;1.504;2023-05-10T08:35:00;10.25;;;2.10;;
78402;SDS011;67687;43.508;1.504;2023-05-10T08:37:29;12.32;;;2.03;;
78402;SDS011;67687;43.508;1.504;2023-05-10T08:40:00;10.50;;;1.88;;
78402;SDS011;67687;43.508;1.504;2023-05-10T08:42:28;12.83;;;2.57;;
78402;SDS011;67687;43.508;1.504;2023-05-10T08:44:57;11.98;;;2.22;;
78402;SDS011;67687;43.508;1.504;2023-05-10T08:47:26;12.50;;;2.30;;
78402;SDS011;67687;43.508;1.504;2023-05-10T08:49:53;10.23;;;2.20;;
78402;SDS011;67687;43.508;1.504;2023-05-10T08:52:21;9.43;;;2.15;;
78402;SDS011;67687;43.508;1.504;2023-05-10T08:54:49;10.23;;;2.27;;
78402;SDS011;67687;43.508;1.504;2023-05-10T08:57:20;10.98;;;1.77;;
78402;SDS011;67687;43.508;1.504;2023-05-10T08:59:47;8.98;;;1.85;;
78402;SDS011;67687;43.508;1.504;2023-05-10T09:02:14;9.40;;;1.85;;
78402;SDS011;67687;43.508;1.504;2023-05-10T09:04:42;10.60;;;2.03;;
78402;SDS011;67687;43.508;1.504;2023-05-10T09:07:09;11.53;;;1.83;;
78402;SDS011;67687;43.508;1.504;2023-05-10T09:09:37;10.73;;;1.80;;
78402;SDS011;67687;43.508;1.504;2023-05-10T09:12:06;15.20;;;2.17;;
78402;SDS011;67687;43.508;1.504;2023-05-10T09:14:37;7.03;;;2.08;;
78402;SDS011;67687;43.508;1.504;2023-05-10T09:17:05;13.35;;;2.50;;
78402;SDS011;67687;43.508;1.504;2023-05-10T09:19:32;10.83;;;2.30;;
78402;SDS011;67687;43.508;1.504;2023-05-10T09:21:59;8.68;;;2.17;;
78402;SDS011;67687;43.508;1.504;2023-05-10T09:24:28;8.73;;;1.98;;
78402;SDS011;67687;43.508;1.504;2023-05-10T09:26:56;11.80;;;2.13;;
78402;SDS011;67687;43.508;1.504;2023-05-10T09:29:23;5.93;;;1.77;;
78402;SDS011;67687;43.508;1.504;2023-05-10T09:31:52;10.23;;;1.80;;
78402;SDS011;67687;43.508;1.504;2023-05-10T09:34:20;9.05;;;1.88;;
78402;SDS011;67687;43.508;1.504;2023-05-10T09:36:55;6.60;;;1.65;;
78402;SDS011;67687;43.508;1.504;2023-05-10T09:39:30;9.02;;;1.70;;
78402;SDS011;67687;43.508;1.504;2023-05-10T09:44:36;9.17;;;1.50;;
78402;SDS011;67687;43.508;1.504;2023-05-10T09:47:05;11.68;;;1.85;;
78402;SDS011;67687;43.508;1.504;2023-05-10T09:49:32;10.05;;;1.80;;
78402;SDS011;67687;43.508;1.504;2023-05-10T09:52:00;6.88;;;1.83;;
78402;SDS011;67687;43.508;1.504;2023-05-10T09:54:31;9.05;;;2.15;;
78402;SDS011;67687;43.508;1.504;2023-05-10T10:04:46;9.18;;;1.75;;
78402;SDS011;67687;43.508;1.504;2023-05-10T10:07:22;7.82;;;1.90;;
78402;SDS011;67687;43.508;1.504;2023-05-10T10:09:50;10.30;;;1.87;;
78402;SDS011;67687;43.508;1.504;2023-05-10T10:12:25;9.15;;;1.65;;
78402;SDS011;67687;43.508;1.504;2023-05-10T10:14:52;13.50;;;2.28;;
78402;SDS011;67687;43.508;1.504;2023-05-10T10:17:20;8.13;;;1.80;;
78402;SDS011;67687;43.508;1.504;2023-05-10T10:19:49;10.50;;;1.55;;
78402;SDS011;67687;43.508;1.504;2023-05-10T10:22:17;10.27;;;1.80;;
78402;SDS011;67687;43.508;1.504;2023-05-10T10:24:48;7.50;;;1.60;;
78402;SDS011;67687;43.508;1.504;2023-05-10T10:27:19;6.63;;;1.83;;
78402;SDS011;67687;43.508;1.504;2023-05-10T10:53:11;5.85;;;0.95;;
78402;SDS011;67687;43.508;1.504;2023-05-10T10:55:45;6.25;;;1.80;;
78402;SDS011;67687;43.508;1.504;2023-05-10T10:58:28;5.05;;;1.30;;
78402;SDS011;67687;43.508;1.504;2023-05-10T11:01:08;4.67;;;1.20;;
78402;SDS011;67687;43.508;1.504;2023-05-10T11:03:38;6.00;;;1.23;;
78402;SDS011;67687;43.508;1.504;2023-05-10T11:06:07;7.43;;;1.58;;
78402;SDS011;67687;43.508;1.504;2023-05-10T11:19:35;5.95;;;1.25;;
78402;SDS011;67687;43.508;1.504;2023-05-10T11:27:14;8.50;;;1.90;;
78402;SDS011;67687;43.508;1.504;2023-05-10T11:29:42;6.57;;;1.40;;
78402;SDS011;67687;43.508;1.504;2023-05-10T11:32:10;6.43;;;1.63;;
78402;SDS011;67687;43.508;1.504;2023-05-10T11:34:40;7.05;;;1.70;;
78402;SDS011;67687;43.508;1.504;2023-05-10T11:37:07;9.52;;;1.73;;
78402;SDS011;67687;43.508;1.504;2023-05-10T11:39:34;7.87;;;2.00;;
78402;SDS011;67687;43.508;1.504;2023-05-10T11:42:01;8.13;;;1.80;;
78402;SDS011;67687;43.508;1.504;2023-05-10T11:44:29;7.57;;;1.80;;
78402;SDS011;67687;43.508;1.504;2023-05-10T11:46:58;10.30;;;1.98;;
78402;SDS011;67687;43.508;1.504;2023-05-10T11:49:25;9.40;;;2.10;;
78402;SDS011;67687;43.508;1.504;2023-05-10T11:51:54;7.40;;;2.00;;
78402;SDS011;67687;43.508;1.504;2023-05-10T11:54:30;10.27;;;2.30;;
78402;SDS011;67687;43.508;1.504;2023-05-10T11:56:59;11.38;;;1.95;;
78402;SDS011;67687;43.508;1.504;2023-05-10T11:59:28;8.63;;;1.80;;
78402;SDS011;67687;43.508;1.504;2023-05-10T12:01:56;5.72;;;1.30;;
78402;SDS011;67687;43.508;1.504;2023-05-10T12:04:23;6.13;;;1.60;;
78402;SDS011;67687;43.508;1.504;2023-05-10T12:06:50;6.05;;;1.20;;
78402;SDS011;67687;43.508;1.504;2023-05-10T12:09:19;4.38;;;1.08;;
78402;SDS011;67687;43.508;1.504;2023-05-10T12:11:46;4.60;;;0.90;;
78402;SDS011;67687;43.508;1.504;2023-05-10T12:14:13;4.85;;;1.10;;
78402;SDS011;67687;43.508;1.504;2023-05-10T12:16:40;6.27;;;0.87;;
78402;SDS011;67687;43.508;1.504;2023-05-10T12:19:09;4.35;;;0.82;;
78402;SDS011;67687;43.508;1.504;2023-05-10T12:21:38;5.40;;;1.00;;
78402;SDS011;67687;43.508;1.504;2023-05-10T12:24:06;5.50;;;1.08;;
78402;SDS011;67687;43.508;1.504;2023-05-10T12:26:35;4.88;;;1.13;;
78402;SDS011;67687;43.508;1.504;2023-05-10T12:29:12;7.53;;;1.30;;
78402;SDS011;67687;43.508;1.504;2023-05-10T12:31:53;4.68;;;1.15;;
78402;SDS011;67687;43.508;1.504;2023-05-10T12:34:24;6.45;;;1.35;;
78402;SDS011;67687;43.508;1.504;2023-05-10T12:36:52;6.93;;;1.27;;
78402;SDS011;67687;43.508;1.504;2023-05-10T12:39:19;7.18;;;1.40;;
78402;SDS011;67687;43.508;1.504;2023-05-10T12:41:48;7.13;;;1.33;;
78402;SDS011;67687;43.508;1.504;2023-05-10T12:44:18;8.50;;;1.83;;
78402;SDS011;67687;43.508;1.504;2023-05-10T12:46:45;6.03;;;1.20;;
78402;SDS011;67687;43.508;1.504;2023-05-10T12:49:12;5.30;;;1.42;;
78402;SDS011;67687;43.508;1.504;2023-05-10T12:51:40;6.18;;;1.48;;
78402;SDS011;67687;43.508;1.504;2023-05-10T12:54:07;6.30;;;1.50;;
78402;SDS011;67687;43.508;1.504;2023-05-10T12:56:34;6.53;;;1.60;;
78402;SDS011;67687;43.508;1.504;2023-05-10T12:59:10;6.05;;;1.25;;
78402;SDS011;67687;43.508;1.504;2023-05-10T13:01:38;4.47;;;0.95;;
78402;SDS011;67687;43.508;1.504;2023-05-10T13:04:05;3.58;;;1.20;;
78402;SDS011;67687;43.508;1.504;2023-05-10T13:06:32;3.03;;;0.70;;
78402;SDS011;67687;43.508;1.504;2023-05-10T13:09:02;3.95;;;0.80;;
78402;SDS011;67687;43.508;1.504;2023-05-10T13:11:29;4.18;;;1.10;;
78402;SDS011;67687;43.508;1.504;2023-05-10T13:14:03;4.95;;;0.90;;
78402;SDS011;67687;43.508;1.504;2023-05-10T13:16:33;3.95;;;0.95;;
78402;SDS011;67687;43.508;1.504;2023-05-10T13:19:00;3.33;;;0.80;;
78402;SDS011;67687;43.508;1.504;2023-05-10T13:21:29;3.50;;;0.90;;
78402;SDS011;67687;43.508;1.504;2023-05-10T13:23:57;3.80;;;0.80;;
78402;SDS011;67687;43.508;1.504;2023-05-10T13:26:25;6.43;;;1.30;;
78402;SDS011;67687;43.508;1.504;2023-05-10T13:28:52;4.45;;;1.20;;
78402;SDS011;67687;43.508;1.504;2023-05-10T13:31:21;4.23;;;1.30;;
78402;SDS011;67687;43.508;1.504;2023-05-10T13:33:51;6.50;;;1.38;;
78402;SDS011;67687;43.508;1.504;2023-05-10T13:36:18;5.97;;;1.10;;
78402;SDS011;67687;43.508;1.504;2023-05-10T13:38:45;4.22;;;1.05;;
78402;SDS011;67687;43.508;1.504;2023-05-10T13:41:12;4.78;;;1.17;;
78402;SDS011;67687;43.508;1.504;2023-05-10T13:43:40;3.67;;;1.00;;
78402;SDS011;67687;43.508;1.504;2023-05-10T13:46:07;3.95;;;1.25;;
78402;SDS011;67687;43.508;1.504;2023-05-10T13:48:36;3.38;;;1.00;;
78402;SDS011;67687;43.508;1.504;2023-05-10T13:51:06;5.72;;;1.38;;
78402;SDS011;67687;43.508;1.504;2023-05-10T13:53:33;5.85;;;1.40;;
78402;SDS011;67687;43.508;1.504;2023-05-10T13:56:01;4.27;;;1.10;;
78402;SDS011;67687;43.508;1.504;2023-05-10T13:58:29;3.80;;;1.10;;
78402;SDS011;67687;43.508;1.504;2023-05-10T14:01:11;5.30;;;1.10;;
78402;SDS011;67687;43.508;1.504;2023-05-10T14:03:38;4.07;;;1.20;;
78402;SDS011;67687;43.508;1.504;2023-05-10T14:06:09;4.53;;;1.23;;
78402;SDS011;67687;43.508;1.504;2023-05-10T14:08:37;5.43;;;1.30;;
78402;SDS011;67687;43.508;1.504;2023-05-10T14:11:05;7.40;;;1.30;;
78402;SDS011;67687;43.508;1.504;2023-05-10T14:13:44;6.25;;;1.50;;
78402;SDS011;67687;43.508;1.504;2023-05-10T14:16:13;4.30;;;1.00;;
78402;SDS011;67687;43.508;1.504;2023-05-10T14:18:40;4.82;;;1.20;;
78402;SDS011;67687;43.508;1.504;2023-05-10T14:21:09;6.53;;;1.27;;
78402;SDS011;67687;43.508;1.504;2023-05-10T14:23:38;3.47;;;1.10;;
78402;SDS011;67687;43.508;1.504;2023-05-10T14:26:05;5.55;;;1.15;;
78402;SDS011;67687;43.508;1.504;2023-05-10T14:28:32;5.32;;;1.40;;
78402;SDS011;67687;43.508;1.504;2023-05-10T14:30:59;5.82;;;1.40;;
78402;SDS011;67687;43.508;1.504;2023-05-10T14:33:27;7.23;;;1.47;;
78402;SDS011;67687;43.508;1.504;2023-05-10T14:35:54;5.95;;;1.20;;
78402;SDS011;67687;43.508;1.504;2023-05-10T14:38:24;6.47;;;1.50;;
78402;SDS011;67687;43.508;1.504;2023-05-10T14:40:51;5.78;;;1.20;;
78402;SDS011;67687;43.508;1.504;2023-05-10T14:43:18;5.60;;;1.05;;
78402;SDS011;67687;43.508;1.504;2023-05-10T14:45:45;4.47;;;1.20;;
78402;SDS011;67687;43.508;1.504;2023-05-10T14:48:12;4.43;;;1.20;;
78402;SDS011;67687;43.508;1.504;2023-05-10T14:50:41;5.03;;;1.10;;
78402;SDS011;67687;43.508;1.504;2023-05-10T14:53:08;9.77;;;1.70;;
78402;SDS011;67687;43.508;1.504;2023-05-10T14:55:36;5.40;;;1.27;;
78402;SDS011;67687;43.508;1.504;2023-05-10T14:58:03;5.57;;;1.60;;
78402;SDS011;67687;43.508;1.504;2023-05-10T15:00:30;5.57;;;1.13;;
78402;SDS011;67687;43.508;1.504;2023-05-10T15:02:57;5.97;;;1.20;;
78402;SDS011;67687;43.508;1.504;2023-05-10T15:05:24;5.60;;;1.48;;
78402;SDS011;67687;43.508;1.504;2023-05-10T15:07:51;5.85;;;1.17;;
78402;SDS011;67687;43.508;1.504;2023-05-10T15:10:18;5.50;;;1.37;;
78402;SDS011;67687;43.508;1.504;2023-05-10T15:12:46;5.97;;;1.45;;
78402;SDS011;67687;43.508;1.504;2023-05-10T15:15:13;7.05;;;1.50;;
78402;SDS011;67687;43.508;1.504;2023-05-10T15:17:40;7.03;;;1.45;;
78402;SDS011;67687;43.508;1.504;2023-05-10T15:20:07;6.40;;;1.45;;
78402;SDS011;67687;43.508;1.504;2023-05-10T15:22:34;5.77;;;1.43;;
78402;SDS011;67687;43.508;1.504;2023-05-10T15:25:04;7.13;;;1.60;;
78402;SDS011;67687;43.508;1.504;2023-05-10T15:27:32;7.47;;;1.45;;
78402;SDS011;67687;43.508;1.504;2023-05-10T15:30:00;6.93;;;1.38;;
78402;SDS011;67687;43.508;1.504;2023-05-10T15:32:27;5.88;;;1.30;;
78402;SDS011;67687;43.508;1.504;2023-05-10T15:34:55;6.03;;;1.40;;
78402;SDS011;67687;43.508;1.504;2023-05-10T15:37:22;9.68;;;1.73;;